In Rescue
 
Open Full Screen Window  High Contrast Mode
Wind Gusting 23 knots
18
April 20, 2024 9:20 AM CDT
Weather Information
Wind Direction
  320 °
Wind Speed
  18 kt (21 mph)
Wind Gust
  23 kt (26 mph)
Altimeter
30.31 in
Visibility
10 SM
Temperature
01° C
34° F
Dewpoint
-05° C
23° F
Humidity
64%
Sky Condition
Clear
VFR

METAR KMOX 201420Z AUTO 32018G23KT 10SM CLR 01/M05 A3031 RMK AO2

FAA Disclaimer: The data displayed is for advisory purposes only and is not to be used for flight planning or operations.